createdAt,value
2023-03-22T00:00:15.703Z,6.71
2023-03-22T00:02:49.099Z,6.74
2023-03-22T00:05:22.200Z,6.74
2023-03-22T00:07:58.485Z,6.74
2023-03-22T00:10:33.537Z,6.68
2023-03-22T00:13:07.006Z,6.43
2023-03-22T00:15:40.279Z,6.48
2023-03-22T00:18:14.889Z,6.36
2023-03-22T00:20:52.775Z,6.44
2023-03-22T00:23:26.104Z,6.49
2023-03-22T00:25:59.539Z,6.49
2023-03-22T00:28:32.378Z,6.50
2023-03-22T00:31:06.239Z,6.54
2023-03-22T00:33:39.446Z,6.33
2023-03-22T00:36:14.823Z,6.09
2023-03-22T00:38:47.370Z,5.96
2023-03-22T00:41:21.579Z,5.83
2023-03-22T00:43:55.816Z,5.88
2023-03-22T00:46:29.681Z,5.93
2023-03-22T00:49:02.468Z,5.91
2023-03-22T00:51:36.369Z,5.95
2023-03-22T00:54:09.216Z,5.83
2023-03-22T00:56:45.827Z,5.75
2023-03-22T00:59:19.840Z,5.67
2023-03-22T01:01:52.678Z,5.62
2023-03-22T01:04:29.237Z,5.58
2023-03-22T01:07:06.146Z,5.61
2023-03-22T01:09:38.748Z,5.58
2023-03-22T01:12:11.793Z,5.59
2023-03-22T01:14:46.414Z,5.55
2023-03-22T01:17:20.673Z,5.58
2023-03-22T01:19:54.150Z,5.61
2023-03-22T01:22:27.084Z,5.65
2023-03-22T01:25:00.285Z,5.46
2023-03-22T01:27:33.461Z,5.43
2023-03-22T01:30:06.935Z,5.39
2023-03-22T01:32:40.830Z,5.41
2023-03-22T01:35:14.573Z,5.45
2023-03-22T01:37:48.444Z,5.44
2023-03-22T01:40:19.754Z,5.37
2023-03-22T01:42:54.445Z,5.26
2023-03-22T01:45:42.640Z,5.29
2023-03-22T01:48:20.963Z,5.30
2023-03-22T01:51:03.581Z,5.22
2023-03-22T01:53:43.877Z,5.06
2023-03-22T01:56:18.222Z,4.96
2023-03-22T01:58:53.577Z,4.93
2023-03-22T02:01:29.078Z,4.99
2023-03-22T02:04:04.820Z,5.02
2023-03-22T02:06:39.247Z,5.03
2023-03-22T02:09:18.537Z,5.04
2023-03-22T02:12:03.156Z,5.02
2023-03-22T02:14:52.898Z,4.67
2023-03-22T02:18:00.042Z,4.72
2023-03-22T02:20:58.447Z,4.71
2023-03-22T02:24:03.377Z,4.68
2023-03-22T02:27:05.458Z,4.65
2023-03-22T02:29:48.208Z,4.63
2023-03-22T02:32:45.462Z,4.66
2023-03-22T02:35:36.075Z,4.56
2023-03-22T02:38:38.350Z,4.57
2023-03-22T02:41:19.634Z,4.54
2023-03-22T02:44:03.586Z,4.57
2023-03-22T02:46:37.453Z,4.59
2023-03-22T02:49:18.104Z,4.51
2023-03-22T02:51:58.607Z,4.52
2023-03-22T02:54:36.957Z,4.56
2023-03-22T02:57:14.096Z,4.58
2023-03-22T02:59:48.005Z,4.60
2023-03-22T03:02:23.355Z,4.54
2023-03-22T03:04:57.766Z,4.58
2023-03-22T03:07:32.416Z,4.59
2023-03-22T03:10:06.975Z,4.57
2023-03-22T03:12:39.932Z,4.60
2023-03-22T03:15:18.985Z,4.53
2023-03-22T03:18:06.978Z,4.55
2023-03-22T03:20:52.681Z,4.59
2023-03-22T03:23:39.045Z,4.61
2023-03-22T03:26:20.776Z,4.65
2023-03-22T03:28:59.885Z,4.65
2023-03-22T03:31:39.323Z,4.67
2023-03-22T03:34:21.952Z,4.67
2023-03-22T03:36:58.634Z,4.66
2023-03-22T03:39:35.966Z,4.65
2023-03-22T03:42:13.354Z,4.74
2023-03-22T03:44:47.278Z,4.79
2023-03-22T03:47:17.992Z,4.79
2023-03-22T03:49:52.381Z,4.70
2023-03-22T03:52:26.496Z,4.71
2023-03-22T03:54:59.924Z,4.77
2023-03-22T03:57:36.817Z,4.86
2023-03-22T04:00:13.715Z,4.87
2023-03-22T04:02:46.432Z,4.84
2023-03-22T04:05:33.556Z,4.84
2023-03-22T04:08:06.340Z,4.84
2023-03-22T04:10:39.555Z,4.85
2023-03-22T04:13:12.469Z,4.71
2023-03-22T04:15:45.880Z,4.75
2023-03-22T04:18:20.087Z,4.74
2023-03-22T04:20:53.965Z,4.70
2023-03-22T04:23:27.179Z,4.70
2023-03-22T04:26:01.249Z,4.67
2023-03-22T04:28:43.402Z,4.67
2023-03-22T04:31:18.804Z,4.67
2023-03-22T04:34:06.012Z,4.73
2023-03-22T04:37:08.602Z,4.80
2023-03-22T04:40:08.995Z,4.83
2023-03-22T04:43:00.009Z,4.89
2023-03-22T04:45:46.588Z,4.91
2023-03-22T04:48:22.773Z,4.97
2023-03-22T04:50:56.196Z,5.05
2023-03-22T04:53:31.827Z,5.12
2023-03-22T04:56:09.320Z,5.14
2023-03-22T04:58:44.266Z,5.20
2023-03-22T05:01:19.769Z,5.23
2023-03-22T05:03:57.068Z,5.30
2023-03-22T05:06:32.956Z,5.39
2023-03-22T05:09:14.586Z,5.49
2023-03-22T05:11:47.767Z,5.56
2023-03-22T05:14:29.140Z,5.60
2023-03-22T05:17:01.804Z,5.62
2023-03-22T05:19:34.997Z,5.63
2023-03-22T05:22:07.897Z,5.73
2023-03-22T05:24:50.097Z,5.77
2023-03-22T05:27:35.167Z,5.78
2023-03-22T05:30:22.389Z,5.85
2023-03-22T05:33:06.733Z,5.91
2023-03-22T05:35:44.939Z,5.95
2023-03-22T05:38:18.158Z,5.99
2023-03-22T05:40:55.100Z,5.89
2023-03-22T05:43:27.880Z,5.90
2023-03-22T05:46:01.633Z,5.91
2023-03-22T05:48:43.023Z,5.87
2023-03-22T05:51:17.903Z,5.88
2023-03-22T05:53:53.791Z,5.81
2023-03-22T05:56:35.541Z,5.73
2023-03-22T05:59:12.295Z,5.76
2023-03-22T06:01:46.016Z,5.86
2023-03-22T06:04:29.273Z,5.90
2023-03-22T06:07:17.814Z,6.02
2023-03-22T06:10:00.306Z,6.17
2023-03-22T06:12:35.614Z,6.27
2023-03-22T06:15:17.474Z,6.39
2023-03-22T06:18:19.663Z,6.56
2023-03-22T06:20:56.757Z,6.67
2023-03-22T06:23:30.674Z,6.68
2023-03-22T06:26:03.946Z,6.93
2023-03-22T06:28:37.305Z,7.07
2023-03-22T06:31:14.588Z,7.33
2023-03-22T06:34:10.961Z,7.53
2023-03-22T06:36:46.716Z,7.64
2023-03-22T06:39:39.212Z,7.63
2023-03-22T06:42:10.386Z,7.90
2023-03-22T06:44:45.171Z,7.81
2023-03-22T06:47:39.045Z,7.89
2023-03-22T06:50:41.303Z,7.82
2023-03-22T06:53:18.642Z,7.94
2023-03-22T06:55:53.772Z,8.07
2023-03-22T06:58:29.436Z,7.93
2023-03-22T07:01:04.027Z,7.74
2023-03-22T07:03:38.217Z,7.68
2023-03-22T07:06:18.200Z,7.68
2023-03-22T07:08:54.210Z,7.60
2023-03-22T07:11:31.855Z,7.88
2023-03-22T07:14:06.251Z,7.98
2023-03-22T07:16:59.177Z,8.12
2023-03-22T07:19:34.165Z,8.12
2023-03-22T07:22:11.088Z,8.12
2023-03-22T07:24:56.287Z,8.14
2023-03-22T07:27:31.207Z,8.10
2023-03-22T07:30:04.706Z,7.82
2023-03-22T07:32:40.990Z,7.87
2023-03-22T07:35:19.183Z,7.74
2023-03-22T07:37:53.629Z,7.76
2023-03-22T07:40:34.778Z,7.92
2023-03-22T07:43:08.689Z,8.01
2023-03-22T07:45:54.328Z,8.29
2023-03-22T07:48:47.290Z,8.37
2023-03-22T07:51:38.481Z,8.26
2023-03-22T07:54:14.007Z,8.21
2023-03-22T07:56:50.973Z,8.15
2023-03-22T07:59:24.058Z,8.52
2023-03-22T08:01:57.675Z,8.34
2023-03-22T08:04:37.108Z,8.16
2023-03-22T08:07:30.813Z,8.40
2023-03-22T08:10:05.523Z,8.41
2023-03-22T08:12:39.927Z,8.25
2023-03-22T08:15:34.267Z,8.41
2023-03-22T08:18:09.001Z,8.58
2023-03-22T08:20:46.047Z,8.89
2023-03-22T08:23:38.429Z,8.84
2023-03-22T08:26:50.069Z,8.65
2023-03-22T08:29:29.394Z,9.07
2023-03-22T08:32:03.017Z,9.52
2023-03-22T08:34:38.369Z,9.78
2023-03-22T08:37:13.721Z,10.16
2023-03-22T08:39:48.404Z,10.40
2023-03-22T08:42:27.162Z,10.18
2023-03-22T08:44:59.995Z,10.11
2023-03-22T08:47:33.767Z,10.13
2023-03-22T08:50:09.556Z,10.24
2023-03-22T08:52:52.533Z,10.20
2023-03-22T08:55:37.909Z,10.52
2023-03-22T08:58:20.026Z,10.90
2023-03-22T09:00:58.927Z,11.05
2023-03-22T09:03:37.271Z,10.91
2023-03-22T09:06:12.430Z,10.41
2023-03-22T09:08:46.208Z,10.43
2023-03-22T09:11:21.409Z,10.62
2023-03-22T09:13:54.854Z,10.55
2023-03-22T09:16:29.260Z,10.60
2023-03-22T09:19:05.183Z,10.53
2023-03-22T09:21:38.211Z,10.45
2023-03-22T09:24:19.981Z,10.30
2023-03-22T09:26:58.334Z,10.22
2023-03-22T09:29:31.226Z,10.11
2023-03-22T09:32:03.082Z,10.12
2023-03-22T09:34:38.071Z,9.95
2023-03-22T09:37:13.340Z,10.09
2023-03-22T09:39:50.907Z,10.03
2023-03-22T09:42:34.145Z,10.15
2023-03-22T09:45:16.799Z,10.19
2023-03-22T09:47:54.627Z,10.09
2023-03-22T09:50:30.144Z,10.00
2023-03-22T09:53:03.666Z,10.18
2023-03-22T09:55:39.913Z,10.15
2023-03-22T09:58:22.844Z,10.20
2023-03-22T10:01:01.567Z,10.18
2023-03-22T10:04:03.229Z,10.24
2023-03-22T10:06:36.418Z,10.27
2023-03-22T10:09:16.436Z,10.15
2023-03-22T10:11:51.237Z,10.38
2023-03-22T10:14:32.776Z,10.42
2023-03-22T10:17:12.321Z,10.27
2023-03-22T10:19:54.277Z,10.48
2023-03-22T10:22:32.834Z,10.53
2023-03-22T10:25:07.942Z,10.56
2023-03-22T10:27:41.825Z,10.70
2023-03-22T10:30:21.363Z,10.55
2023-03-22T10:32:59.027Z,10.59
2023-03-22T10:35:33.379Z,10.87
2023-03-22T10:38:08.965Z,10.90
2023-03-22T10:40:42.879Z,10.96
2023-03-22T10:43:23.197Z,11.08
2023-03-22T10:45:58.724Z,11.22
2023-03-22T10:48:35.346Z,11.25
2023-03-22T10:51:08.637Z,11.26
2023-03-22T10:53:46.931Z,11.30
2023-03-22T10:56:21.874Z,11.31
2023-03-22T10:58:56.577Z,11.36
2023-03-22T11:01:37.244Z,11.48
2023-03-22T11:04:15.634Z,11.79
2023-03-22T11:06:56.489Z,11.93
2023-03-22T11:09:29.518Z,11.88
2023-03-22T11:12:04.367Z,11.96
2023-03-22T11:14:39.366Z,12.19
2023-03-22T11:17:14.942Z,12.42
2023-03-22T11:19:57.016Z,12.58
2023-03-22T11:22:36.765Z,12.82
2023-03-22T11:25:19.163Z,12.68
2023-03-22T11:27:57.152Z,12.97
2023-03-22T11:30:31.460Z,13.03
2023-03-22T11:33:21.524Z,13.33
2023-03-22T11:35:59.131Z,13.56
2023-03-22T11:38:37.124Z,13.65
2023-03-22T11:41:15.039Z,13.81
2023-03-22T11:43:54.572Z,14.08
2023-03-22T11:46:29.063Z,14.30
2023-03-22T11:49:08.557Z,14.27
2023-03-22T11:51:45.324Z,13.74
2023-03-22T11:54:26.046Z,13.95
2023-03-22T11:57:02.653Z,14.12
2023-03-22T11:59:41.917Z,14.18
2023-03-22T12:02:24.097Z,13.99
2023-03-22T12:05:02.143Z,13.83
2023-03-22T12:07:38.248Z,14.16
2023-03-22T12:10:17.955Z,14.38
2023-03-22T12:12:56.777Z,14.56
2023-03-22T12:15:34.399Z,14.81
2023-03-22T12:18:14.271Z,15.04
2023-03-22T12:20:55.617Z,15.03
2023-03-22T12:23:30.311Z,15.12
2023-03-22T12:26:06.770Z,15.25
2023-03-22T12:28:45.934Z,15.30
2023-03-22T12:31:24.519Z,15.35
2023-03-22T12:33:59.918Z,14.97
2023-03-22T12:36:41.922Z,15.09
2023-03-22T12:39:21.669Z,15.07
2023-03-22T12:41:59.409Z,15.29
2023-03-22T12:44:38.362Z,15.56
2023-03-22T12:47:20.901Z,15.67
2023-03-22T12:49:58.905Z,15.86
2023-03-22T12:52:45.375Z,16.07
2023-03-22T12:55:26.862Z,16.03
2023-03-22T12:58:00.867Z,16.22
2023-03-22T13:00:41.492Z,16.26
2023-03-22T13:03:29.350Z,16.32
2023-03-22T13:06:29.596Z,16.42
2023-03-22T13:09:19.420Z,16.50
2023-03-22T13:12:12.913Z,16.48
2023-03-22T13:15:03.790Z,16.56
2023-03-22T13:17:52.777Z,16.67
2023-03-22T13:20:28.798Z,16.66
2023-03-22T13:23:30.047Z,16.45
2023-03-22T13:26:16.588Z,16.61
2023-03-22T13:28:58.997Z,16.60
2023-03-22T13:31:42.273Z,16.52
2023-03-22T13:34:21.107Z,16.40
2023-03-22T13:36:57.738Z,16.13
2023-03-22T13:39:52.319Z,16.10
2023-03-22T13:42:33.051Z,16.10
2023-03-22T13:45:09.202Z,16.23
2023-03-22T13:47:48.353Z,16.34
2023-03-22T13:50:25.716Z,16.40
2023-03-22T13:53:01.510Z,16.40
2023-03-22T13:55:59.852Z,16.50
2023-03-22T13:58:54.158Z,16.65
2023-03-22T14:01:35.594Z,16.83
2023-03-22T14:04:12.698Z,16.86
2023-03-22T14:06:54.270Z,16.78
2023-03-22T14:09:32.481Z,16.55
2023-03-22T14:12:17.292Z,16.49
2023-03-22T14:14:54.129Z,16.49
2023-03-22T14:17:40.870Z,16.42
2023-03-22T14:20:17.525Z,16.26
